Time;durP1;ratioP1;P1;durP2;ratioP2;P2;SDS_P1;SDS_P2;PMS_P1;PMS_P2;Temp;Humidity;BMP_temperature;BMP_pressure;BME280_temperature;BME280_humidity;BME280_pressure;Samples;Min_cycle;Max_cycle;Signal;HPM_P1;HPM_P2
2022/08/23 00:02:07;;;;;;;7.17;3.93;;;;;;;21.44;51.92;100229.81;5088330;28;20471;-80
2022/08/23 00:04:36;;;;;;;5.27;3.83;;;;;;;21.46;51.81;100235.09;5074340;28;20543;-79
2022/08/23 00:07:04;;;;;;;3.60;3.30;;;;;;;21.43;52.20;100236.31;5073960;28;20496;-80
2022/08/23 00:09:32;;;;;;;4.00;3.30;;;;;;;21.37;52.11;100237.16;5083231;28;20457;-80
2022/08/23 00:12:09;;;;;;;6.97;3.23;;;;;;;21.43;51.96;100233.56;5085794;28;20786;-79
2022/08/23 00:14:40;;;;;;;10.80;4.00;;;;;;;21.39;51.95;100240.50;5083033;28;20444;-79
2022/08/23 00:17:08;;;;;;;3.90;2.93;;;;;;;21.42;51.99;100240.09;5074566;28;20483;-79
2022/08/23 00:19:35;;;;;;;8.80;3.50;;;;;;;21.38;52.24;100240.72;5070885;28;20464;-79
2022/08/23 00:22:01;;;;;;;5.37;3.77;;;;;;;21.45;51.95;100231.47;5066103;28;20469;-79
2022/08/23 00:24:28;;;;;;;4.10;3.63;;;;;;;21.39;51.74;100231.53;5085738;28;20436;-79
2022/08/23 00:27:00;;;;;;;5.07;3.47;;;;;;;21.38;51.81;100238.81;5077056;28;20513;-79
2022/08/23 00:29:29;;;;;;;4.73;4.23;;;;;;;21.43;51.41;100233.56;5090112;28;20685;-79
2022/08/23 00:31:57;;;;;;;4.07;3.30;;;;;;;21.52;51.35;100238.84;5095327;28;20468;-79
2022/08/23 00:34:24;;;;;;;8.10;3.70;;;;;;;21.58;51.30;100236.09;5081428;28;20449;-79
2022/08/23 00:36:51;;;;;;;5.57;3.93;;;;;;;21.47;50.93;100231.31;5070139;28;20537;-80
2022/08/23 00:39:19;;;;;;;4.20;3.80;;;;;;;21.51;51.00;100234.44;5076705;28;20463;-81
2022/08/23 00:41:48;;;;;;;3.93;3.50;;;;;;;21.61;50.10;100226.66;5070810;28;20978;-81
2022/08/23 00:49:54;;;;;;;4.83;3.23;;;;;;;21.51;51.49;100229.00;5080196;28;20497;-79
2022/08/23 00:52:27;;;;;;;6.70;3.97;;;;;;;21.47;52.46;100225.84;5079452;28;20567;-80
2022/08/23 00:54:55;;;;;;;5.40;3.47;;;;;;;21.34;52.89;100213.09;5073666;28;20488;-79
2022/08/23 00:57:22;;;;;;;4.17;3.60;;;;;;;21.36;53.03;100227.31;5072212;28;20476;-79
2022/08/23 00:59:50;;;;;;;6.57;4.07;;;;;;;21.30;53.18;100214.59;5069781;28;20436;-79
2022/08/23 01:02:17;;;;;;;4.70;4.30;;;;;;;21.28;53.00;100224.00;5068810;28;20508;-80
2022/08/23 01:04:50;;;;;;;5.17;4.67;;;;;;;21.30;53.15;100225.47;5070072;28;20514;-80
2022/08/23 01:07:28;;;;;;;4.40;4.00;;;;;;;21.33;52.78;100232.34;5069135;28;20480;-79
2022/08/23 01:09:57;;;;;;;4.97;3.93;;;;;;;21.27;52.59;100225.06;5048232;28;20457;-80
2022/08/23 01:12:29;;;;;;;8.80;4.17;;;;;;;21.31;51.88;100226.28;5086789;28;20541;-79
2022/08/23 01:14:59;;;;;;;11.93;4.20;;;;;;;21.43;52.26;100222.69;5056511;28;20447;-80
2022/08/23 01:17:29;;;;;;;4.67;3.40;;;;;;;21.47;51.53;100228.59;5085419;28;20494;-80
2022/08/23 01:19:58;;;;;;;5.37;4.00;;;;;;;21.53;51.28;100232.34;5073661;28;20448;-80
2022/08/23 01:22:28;;;;;;;5.07;3.37;;;;;;;21.60;49.28;100235.88;5069777;28;20475;-79
2022/08/23 01:24:57;;;;;;;8.53;3.23;;;;;;;21.64;49.21;100231.69;5083297;28;20440;-80
2022/08/23 01:27:24;;;;;;;5.83;3.33;;;;;;;21.74;49.51;100231.25;5067943;28;20476;-80
2022/08/23 01:29:51;;;;;;;5.77;3.23;;;;;;;21.73;48.92;100235.81;5073789;28;20488;-80
2022/08/23 01:32:18;;;;;;;6.40;3.10;;;;;;;21.71;49.52;100240.66;5047518;28;20481;-80
2022/08/23 01:34:45;;;;;;;3.00;2.70;;;;;;;21.82;48.84;100241.88;5072969;28;20468;-79
2022/08/23 01:37:13;;;;;;;4.20;2.80;;;;;;;21.88;47.48;100237.47;5084253;28;20556;-80
2022/08/23 01:39:39;;;;;;;4.00;3.10;;;;;;;21.97;47.21;100238.91;5066472;28;20460;-78
2022/08/23 01:42:07;;;;;;;3.77;3.03;;;;;;;22.12;47.09;100242.19;5075626;28;20829;-80
2022/08/23 01:44:35;;;;;;;9.10;3.40;;;;;;;22.22;46.04;100230.81;5067404;28;20448;-80
2022/08/23 01:47:01;;;;;;;3.93;3.10;;;;;;;22.30;45.95;100241.47;5065013;28;20558;-80
2022/08/23 01:49:28;;;;;;;4.63;2.73;;;;;;;22.33;46.46;100234.78;5085687;28;20963;-79
2022/08/23 01:51:55;;;;;;;8.40;2.77;;;;;;;22.29;46.22;100236.25;5083094;28;20474;-79
2022/08/23 01:54:21;;;;;;;4.67;3.00;;;;;;;22.31;45.87;100237.72;5068247;28;20541;-79
2022/08/23 01:56:49;;;;;;;4.27;2.97;;;;;;;22.35;46.42;100241.66;5070420;28;20479;-79
2022/08/23 01:59:17;;;;;;;5.23;3.03;;;;;;;22.39;45.62;100239.34;5070216;28;20448;-79
2022/08/23 02:01:44;;;;;;;7.20;2.70;;;;;;;22.37;45.78;100228.66;5072812;28;20516;-79
2022/08/23 02:04:10;;;;;;;3.30;2.73;;;;;;;22.38;45.94;100233.06;5077945;28;20479;-79
2022/08/23 02:06:37;;;;;;;4.83;2.77;;;;;;;22.43;45.35;100232.41;5081416;28;20490;-78
2022/08/23 02:09:04;;;;;;;7.70;2.53;;;;;;;22.39;45.59;100231.16;5079060;28;20461;-78
2022/08/23 02:11:34;;;;;;;3.60;2.57;;;;;;;22.41;45.34;100228.22;5085290;28;20468;-78
2022/08/23 02:14:04;;;;;;;4.33;2.40;;;;;;;22.36;45.54;100228.91;5072054;28;20563;-80
2022/08/23 02:16:35;;;;;;;7.93;2.70;;;;;;;22.28;45.51;100221.81;5083397;28;20458;-80
2022/08/23 02:19:04;;;;;;;4.97;2.53;;;;;;;22.34;45.86;100222.81;5076502;28;20433;-81
2022/08/23 02:21:31;;;;;;;5.07;2.67;;;;;;;22.22;45.86;100221.81;5080663;28;20486;-80
2022/08/23 02:23:58;;;;;;;4.07;2.30;;;;;;;22.19;45.83;100215.75;5091165;28;20435;-81
2022/08/23 02:26:24;;;;;;;5.20;3.03;;;;;;;22.36;45.76;100223.44;5091660;28;20468;-81
2022/08/23 02:28:52;;;;;;;5.80;3.00;;;;;;;22.36;45.95;100224.28;5085068;28;20483;-81
2022/08/23 02:31:18;;;;;;;4.40;2.70;;;;;;;22.31;46.17;100231.44;5073282;28;20472;-81
2022/08/23 02:33:47;;;;;;;5.17;2.47;;;;;;;22.30;46.26;100229.75;5073491;28;20480;-83
2022/08/23 02:36:14;;;;;;;6.77;2.63;;;;;;;22.21;46.62;100226.41;5073480;28;21041;-80
2022/08/23 02:38:40;;;;;;;3.47;3.10;;;;;;;22.16;46.27;100237.13;5091064;28;20546;-81
2022/08/23 02:41:07;;;;;;;5.00;2.30;;;;;;;22.13;46.17;100227.53;5094143;28;20455;-81
2022/08/23 02:43:36;;;;;;;2.90;2.60;;;;;;;21.99;49.34;100231.34;5090459;28;20488;-81
2022/08/23 02:46:05;;;;;;;4.17;3.07;;;;;;;21.81;50.33;100230.16;5072075;28;20453;-81
2022/08/23 02:48:32;;;;;;;5.20;2.97;;;;;;;21.61;50.85;100235.69;5089778;28;20535;-80
2022/08/23 02:51:01;;;;;;;4.10;3.30;;;;;;;21.51;51.59;100227.13;5070521;28;20473;-81
2022/08/23 02:53:28;;;;;;;6.37;3.47;;;;;;;21.52;51.54;100231.50;5076303;28;20491;-81
2022/08/23 02:55:54;;;;;;;10.00;3.23;;;;;;;21.28;52.30;100232.97;5083522;28;20529;-81
2022/08/23 02:58:21;;;;;;;6.13;3.30;;;;;;;21.21;52.30;100230.28;5077171;28;20464;-81
2022/08/23 03:00:48;;;;;;;6.53;3.70;;;;;;;21.17;52.23;100236.34;5067032;28;20457;-80
2022/08/23 03:03:15;;;;;;;6.00;3.00;;;;;;;21.11;53.06;100235.31;5069309;28;20453;-81
2022/08/23 03:05:42;;;;;;;6.47;3.27;;;;;;;21.09;53.30;100242.00;5077531;28;20544;-81
2022/08/23 03:08:10;;;;;;;5.10;3.37;;;;;;;21.08;53.01;100232.19;5086076;28;20497;-81
2022/08/23 03:10:39;;;;;;;7.40;4.40;;;;;;;20.96;53.92;100235.53;5091772;28;20554;-81
2022/08/23 03:13:06;;;;;;;4.47;3.10;;;;;;;20.96;53.58;100231.97;5088388;28;20484;-80
2022/08/23 03:15:33;;;;;;;5.83;3.40;;;;;;;20.85;53.85;100233.44;5068808;28;20479;-81
2022/08/23 03:17:59;;;;;;;4.10;3.43;;;;;;;20.90;53.66;100239.09;5060613;28;20433;-80
2022/08/23 03:20:27;;;;;;;4.50;3.20;;;;;;;20.97;53.41;100226.34;5071091;28;20941;-81
2022/08/23 03:22:53;;;;;;;5.50;3.37;;;;;;;20.87;53.89;100223.19;5087817;28;20444;-81
2022/08/23 03:25:21;;;;;;;4.80;3.80;;;;;;;20.83;54.14;100227.34;5084126;28;20433;-81
2022/08/23 03:27:48;;;;;;;3.67;3.37;;;;;;;20.85;53.92;100231.56;5063038;28;20426;-79
2022/08/23 03:30:15;;;;;;;3.80;3.20;;;;;;;20.86;54.04;100222.34;5047167;28;20474;-79
2022/08/23 03:32:41;;;;;;;7.63;3.43;;;;;;;20.70;54.72;100222.75;5052417;28;20481;-79
2022/08/23 03:35:08;;;;;;;7.60;4.83;;;;;;;20.76;54.53;100226.53;5085833;28;20483;-79
2022/08/23 03:37:35;;;;;;;4.00;3.60;;;;;;;20.74;54.88;100220.47;5088994;28;20477;-79
2022/08/23 03:40:03;;;;;;;4.77;3.40;;;;;;;20.64;55.21;100229.00;5072049;28;20444;-79
2022/08/23 03:42:31;;;;;;;5.07;3.33;;;;;;;20.48;55.89;100225.66;5068646;28;20500;-80
2022/08/23 03:44:58;;;;;;;5.80;3.90;;;;;;;20.48;55.86;100227.50;5071789;28;20508;-79
2022/08/23 03:47:25;;;;;;;9.37;4.10;;;;;;;20.50;55.52;100228.13;5083602;28;20472;-81
2022/08/23 03:49:51;;;;;;;4.13;3.73;;;;;;;20.59;55.80;100237.78;5063181;28;20491;-82
2022/08/23 03:52:18;;;;;;;6.07;3.70;;;;;;;20.53;55.25;100232.31;5061776;28;20480;-81
2022/08/23 03:54:45;;;;;;;5.70;3.60;;;;;;;20.48;55.39;100239.22;5079876;28;20496;-81
2022/08/23 03:57:12;;;;;;;8.67;3.70;;;;;;;20.56;55.18;100246.31;5072570;28;20480;-81
2022/08/23 03:59:41;;;;;;;5.27;3.50;;;;;;;20.49;55.79;100240.06;5061656;28;20468;-81
2022/08/23 04:02:08;;;;;;;3.90;3.40;;;;;;;20.45;55.49;100238.78;5069576;28;20484;-81
2022/08/23 04:04:35;;;;;;;6.13;3.70;;;;;;;20.41;56.44;100243.78;5080689;28;20448;-80
2022/08/23 04:07:01;;;;;;;8.40;3.57;;;;;;;20.45;55.63;100245.06;5067787;28;20488;-81
2022/08/23 04:09:28;;;;;;;4.20;3.60;;;;;;;20.33;55.93;100244.00;5084027;28;20444;-81
2022/08/23 04:11:56;;;;;;;4.17;3.43;;;;;;;20.37;55.73;100244.41;5092375;28;20476;-81
2022/08/23 04:14:23;;;;;;;7.07;3.40;;;;;;;20.40;55.75;100244.84;5089535;28;20482;-81
2022/08/23 04:16:51;;;;;;;5.40;3.50;;;;;;;20.31;56.17;100246.91;5084017;28;20468;-81
2022/08/23 04:19:18;;;;;;;5.93;3.20;;;;;;;20.20;56.32;100255.63;5069866;28;20460;-81
2022/08/23 04:21:48;;;;;;;4.73;3.03;;;;;;;20.10;57.23;100255.16;5074744;28;20477;-81
2022/08/23 04:24:15;;;;;;;4.67;3.10;;;;;;;20.16;56.65;100258.97;5077331;28;20535;-82
2022/08/23 04:26:41;;;;;;;7.80;3.40;;;;;;;20.09;57.09;100254.34;5070051;28;20480;-81
2022/08/23 04:29:10;;;;;;;8.67;3.60;;;;;;;19.97;57.75;100264.09;5065182;28;20955;-81
2022/08/23 04:31:37;;;;;;;5.67;3.93;;;;;;;19.78;58.80;100265.69;5059641;28;20496;-80
2022/08/23 04:34:05;;;;;;;4.53;3.60;;;;;;;19.78;58.75;100262.16;5055663;28;20510;-79
2022/08/23 04:36:35;;;;;;;3.97;3.57;;;;;;;19.83;58.88;100270.50;5064175;28;20476;-79
2022/08/23 04:39:02;;;;;;;4.70;3.47;;;;;;;19.71;59.39;100267.50;5059719;28;20469;-78
2022/08/23 04:44:13;;;;;;;6.47;4.03;;;;;;;20.00;58.13;100268.28;5064650;28;20480;-87
2022/08/23 04:46:42;;;;;;;8.70;3.80;;;;;;;19.96;58.42;100264.31;5075375;28;20471;-88
2022/08/23 04:49:10;;;;;;;4.40;3.47;;;;;;;19.84;59.05;100272.16;5082141;28;20821;-88
2022/08/23 04:51:37;;;;;;;4.90;4.20;;;;;;;19.96;58.92;100267.00;5062438;28;20515;-88
2022/08/23 04:54:04;;;;;;;5.00;3.73;;;;;;;19.92;59.04;100278.28;5061413;28;21006;-88
2022/08/23 04:56:31;;;;;;;5.23;3.83;;;;;;;19.88;58.68;100278.88;5073996;28;20479;-87
2022/08/23 04:58:58;;;;;;;7.40;3.77;;;;;;;19.88;58.21;100287.03;5082176;28;20452;-87
2022/08/23 05:01:24;;;;;;;4.57;3.70;;;;;;;19.83;57.95;100287.63;5077375;28;20480;-87
2022/08/23 05:03:51;;;;;;;5.80;3.63;;;;;;;19.96;57.41;100284.13;5081573;28;20482;-88
2022/08/23 05:06:20;;;;;;;6.87;3.90;;;;;;;20.01;57.01;100294.38;5068967;28;21008;-88
2022/08/23 05:08:47;;;;;;;6.33;3.33;;;;;;;20.05;56.69;100292.94;5064729;28;20479;-88
2022/08/23 05:11:13;;;;;;;5.23;3.00;;;;;;;20.06;57.24;100298.16;5084493;28;20475;-88
2022/08/23 05:13:40;;;;;;;7.00;3.63;;;;;;;20.09;56.77;100294.22;5082230;28;20476;-88
2022/08/23 05:16:07;;;;;;;4.00;3.40;;;;;;;20.27;55.99;100302.63;5065723;28;20480;-88
2022/08/23 05:18:34;;;;;;;8.83;4.23;;;;;;;20.31;55.94;100297.63;5067873;28;20452;-88
2022/08/23 05:21:01;;;;;;;6.20;3.80;;;;;;;20.43;56.07;100308.75;5062629;28;20484;-87
2022/08/23 05:23:29;;;;;;;8.10;3.93;;;;;;;20.43;55.64;100297.88;5072820;28;20481;-77
2022/08/23 05:25:57;;;;;;;9.80;3.90;;;;;;;20.64;55.09;100295.06;5083144;28;20498;-77
2022/08/23 05:28:26;;;;;;;4.00;3.30;;;;;;;21.65;52.32;100303.25;5065743;28;20433;-77
2022/08/23 05:30:58;;;;;;;4.70;3.60;;;;;;;22.99;48.79;100308.97;5064864;28;20483;-76
2022/08/23 05:33:25;;;;;;;4.40;3.10;;;;;;;24.13;45.76;100308.75;5065204;28;20512;-76
2022/08/23 05:35:53;;;;;;;5.63;3.60;;;;;;;24.96;43.14;100312.69;5064822;28;20564;-76
2022/08/23 05:38:20;;;;;;;4.63;3.00;;;;;;;25.24;42.76;100322.13;5065470;28;20436;-76
2022/08/23 05:40:50;;;;;;;3.30;2.93;;;;;;;25.49;42.09;100324.72;5064095;28;20873;-76
2022/08/23 05:43:17;;;;;;;7.53;3.17;;;;;;;25.81;41.43;100318.84;5065269;28;20532;-76
2022/08/23 05:45:44;;;;;;;3.23;2.90;;;;;;;26.53;40.30;100320.38;5064619;28;20475;-75
2022/08/23 05:48:11;;;;;;;3.00;2.43;;;;;;;26.84;39.16;100324.56;5065267;28;20527;-76
2022/08/23 05:50:39;;;;;;;5.83;2.73;;;;;;;26.82;39.20;100326.69;5064386;28;20460;-77
2022/08/23 05:53:06;;;;;;;5.90;2.83;;;;;;;27.16;38.17;100332.25;5064560;28;20479;-76
2022/08/23 05:55:32;;;;;;;6.33;2.93;;;;;;;27.13;38.81;100325.31;5063467;28;20505;-75
2022/08/23 05:58:01;;;;;;;5.77;2.80;;;;;;;27.64;37.91;100329.97;5064383;28;20493;-75
2022/08/23 06:00:28;;;;;;;6.63;3.47;;;;;;;27.65;38.04;100332.47;5063678;28;20472;-75
2022/08/23 06:02:54;;;;;;;5.13;3.67;;;;;;;27.90;36.98;100329.28;5063828;28;20445;-76
2022/08/23 06:05:22;;;;;;;5.77;2.77;;;;;;;27.71;37.34;100334.22;5063904;28;20864;-76
2022/08/23 06:07:49;;;;;;;6.53;3.60;;;;;;;27.89;36.84;100330.34;5064521;28;20429;-73
2022/08/23 06:10:16;;;;;;;6.30;3.17;;;;;;;27.84;37.73;100329.47;5063459;28;20484;-75
2022/08/23 06:12:43;;;;;;;7.00;3.60;;;;;;;28.22;36.97;100331.38;5060780;28;20457;-75
2022/08/23 06:15:11;;;;;;;6.20;3.40;;;;;;;28.32;36.42;100334.25;5062203;28;20508;-75
2022/08/23 06:17:38;;;;;;;4.30;2.97;;;;;;;28.35;35.66;100333.72;5062920;28;20449;-76
2022/08/23 06:20:07;;;;;;;4.90;2.83;;;;;;;28.32;36.27;100333.41;5063306;28;20461;-77
2022/08/23 06:22:33;;;;;;;4.70;3.00;;;;;;;28.40;35.54;100338.47;5061541;28;20496;-77
2022/08/23 06:25:00;;;;;;;4.47;2.63;;;;;;;28.42;35.93;100335.44;5063826;28;20475;-76
2022/08/23 06:27:27;;;;;;;6.83;3.00;;;;;;;28.30;36.74;100343.84;5063434;28;20516;-76
2022/08/23 06:29:54;;;;;;;4.30;2.70;;;;;;;29.00;34.50;100344.91;5078086;28;20448;-77
2022/08/23 06:32:22;;;;;;;5.57;2.93;;;;;;;29.98;33.02;100342.91;5082838;28;20483;-76
2022/08/23 06:34:49;;;;;;;3.80;2.40;;;;;;;28.83;34.60;100339.50;5083869;28;20488;-76
2022/08/23 06:37:15;;;;;;;5.73;2.80;;;;;;;29.90;33.36;100352.53;5082885;28;20545;-77
2022/08/23 06:39:42;;;;;;;4.27;2.53;;;;;;;29.77;33.58;100348.31;5083519;28;20448;-80
2022/08/23 06:42:13;;;;;;;4.77;2.93;;;;;;;29.57;33.59;100357.25;5083291;28;20492;-77
2022/08/23 06:44:40;;;;;;;3.37;2.37;;;;;;;30.38;32.75;100352.47;5070485;28;20926;-78
2022/08/23 06:47:07;;;;;;;5.07;2.90;;;;;;;30.62;31.90;100355.59;5063210;28;20523;-78
2022/08/23 06:49:35;;;;;;;5.40;2.77;;;;;;;31.33;30.90;100356.81;5063403;28;20485;-78
2022/08/23 06:52:04;;;;;;;4.40;2.87;;;;;;;30.68;31.89;100354.53;5063387;28;20477;-77
2022/08/23 06:54:33;;;;;;;6.00;2.53;;;;;;;29.43;34.11;100356.03;5063243;28;20493;-78
2022/08/23 06:57:01;;;;;;;6.90;2.53;;;;;;;28.08;36.91;100347.41;5062454;28;20503;-77
2022/08/23 06:59:28;;;;;;;7.47;2.93;;;;;;;28.26;37.45;100351.78;5063359;28;20485;-77
2022/08/23 07:01:56;;;;;;;10.23;2.77;;;;;;;27.52;37.44;100352.91;5062322;28;20488;-75
2022/08/23 07:04:25;;;;;;;3.00;2.50;;;;;;;29.27;34.48;100353.16;5062566;28;20464;-77
2022/08/23 07:06:54;;;;;;;3.60;2.60;;;;;;;29.65;33.63;100353.16;5062482;28;20542;-77
2022/08/23 07:09:20;;;;;;;6.77;2.43;;;;;;;30.20;32.91;100364.81;5062899;28;20461;-77
2022/08/23 07:11:48;;;;;;;4.00;2.40;;;;;;;31.13;31.67;100366.78;5073909;28;20923;-77
2022/08/23 07:14:18;;;;;;;4.73;3.00;;;;;;;32.28;29.69;100369.94;5082772;28;20492;-77
2022/08/23 07:16:48;;;;;;;4.27;2.43;;;;;;;32.46;28.78;100370.44;5066941;28;21103;-78
2022/08/23 07:19:15;;;;;;;4.53;2.33;;;;;;;31.67;29.95;100376.47;5062412;28;20969;-78
2022/08/23 07:21:43;;;;;;;6.53;2.60;;;;;;;31.95;29.50;100373.38;5062230;28;20497;-78
2022/08/23 07:24:12;;;;;;;2.70;2.20;;;;;;;33.67;27.12;100363.53;5063132;28;20425;-77
2022/08/23 07:26:39;;;;;;;3.30;2.37;;;;;;;33.03;28.07;100369.00;5062286;28;20512;-77
2022/08/23 07:29:07;;;;;;;4.60;1.90;;;;;;;32.13;28.57;100381.06;5063086;28;20483;-78
2022/08/23 07:31:37;;;;;;;3.60;2.47;;;;;;;33.13;28.03;100365.34;5062163;28;20847;-78
2022/08/23 07:34:05;;;;;;;6.40;2.50;;;;;;;34.06;26.73;100365.34;5061429;28;20442;-79
2022/08/23 07:36:33;;;;;;;5.47;2.33;;;;;;;33.17;27.98;100366.44;5061790;28;20501;-78
2022/08/23 07:39:00;;;;;;;2.93;1.87;;;;;;;33.07;28.14;100360.13;5062674;28;20520;-77
2022/08/23 07:41:30;;;;;;;5.57;2.20;;;;;;;33.09;27.40;100367.03;5074364;28;20797;-77
2022/08/23 07:43:58;;;;;;;4.87;2.70;;;;;;;35.43;24.64;100372.06;5065452;28;20475;-78
2022/08/23 07:46:25;;;;;;;3.23;2.43;;;;;;;34.63;25.32;100359.91;5061304;28;20466;-77
2022/08/23 07:48:52;;;;;;;5.60;2.10;;;;;;;34.69;25.72;100360.69;5061735;28;20461;-78
2022/08/23 07:51:19;;;;;;;3.93;2.23;;;;;;;34.07;26.17;100366.16;5061811;28;20479;-78
2022/08/23 07:53:46;;;;;;;4.90;2.33;;;;;;;34.26;25.85;100374.56;5061673;28;20423;-77
2022/08/23 07:56:14;;;;;;;3.03;2.03;;;;;;;34.06;26.40;100370.06;5061576;28;20494;-78
2022/08/23 07:58:42;;;;;;;4.43;2.20;;;;;;;33.65;26.46;100365.75;5061973;28;20446;-77
2022/08/23 08:01:11;;;;;;;3.20;2.07;;;;;;;35.13;25.44;100367.81;5062277;28;20473;-77
2022/08/23 08:03:39;;;;;;;5.07;2.67;;;;;;;34.24;26.45;100377.63;5062211;28;20542;-77
2022/08/23 08:06:11;;;;;;;4.70;2.10;;;;;;;35.01;24.81;100367.44;5061345;28;20490;-77
2022/08/23 08:08:38;;;;;;;2.70;2.07;;;;;;;33.91;24.38;100371.88;5062254;28;20549;-77
2022/08/23 08:11:05;;;;;;;6.87;2.40;;;;;;;34.61;25.42;100369.66;5070114;28;20483;-77
2022/08/23 08:13:32;;;;;;;7.10;2.80;;;;;;;35.52;24.10;100371.34;5082286;28;20426;-78
2022/08/23 08:16:00;;;;;;;3.40;2.10;;;;;;;35.23;23.50;100369.63;5072522;28;20506;-77
2022/08/23 08:18:26;;;;;;;3.23;1.67;;;;;;;35.21;25.17;100375.50;5061340;28;20449;-77
2022/08/23 08:20:53;;;;;;;5.63;2.50;;;;;;;34.20;25.14;100368.28;5061404;28;20527;-78
2022/08/23 08:23:20;;;;;;;4.90;1.87;;;;;;;35.39;24.18;100372.97;5062088;28;20460;-77
2022/08/23 08:25:46;;;;;;;4.20;2.53;;;;;;;34.55;25.87;100379.19;5060460;28;20531;-77
2022/08/23 08:28:13;;;;;;;4.47;2.20;;;;;;;34.05;24.94;100385.06;5061847;28;20459;-77
2022/08/23 08:30:40;;;;;;;4.20;2.37;;;;;;;33.55;24.78;100382.47;5061459;28;20470;-77
2022/08/23 08:33:08;;;;;;;3.87;2.17;;;;;;;33.96;24.43;100373.78;5059914;28;20511;-77
2022/08/23 08:35:35;;;;;;;4.23;2.00;;;;;;;33.59;25.29;100375.22;5059467;28;20480;-76
2022/08/23 08:38:02;;;;;;;2.20;2.00;;;;;;;35.08;23.49;100385.38;5061643;28;20480;-77
2022/08/23 08:40:33;;;;;;;4.70;2.00;;;;;;;35.58;22.45;100370.94;5061267;28;20477;-76
2022/08/23 08:43:16;;;;;;;4.00;2.03;;;;;;;34.36;23.73;100377.22;5061915;28;20438;-77
2022/08/23 08:45:51;;;;;;;3.90;2.30;;;;;;;35.52;23.29;100383.31;5062782;28;20493;-76
2022/08/23 08:48:22;;;;;;;4.80;2.33;;;;;;;36.24;21.83;100375.59;5065341;28;20524;-78
2022/08/23 08:50:52;;;;;;;4.60;2.30;;;;;;;34.17;23.82;100384.66;5064713;28;20532;-77
2022/08/23 08:53:23;;;;;;;2.20;1.53;;;;;;;34.19;23.52;100382.41;5065341;28;20444;-77
2022/08/23 08:55:52;;;;;;;2.43;1.70;;;;;;;35.23;22.71;100377.97;5064367;28;20506;-77
2022/08/23 08:58:23;;;;;;;5.17;2.30;;;;;;;35.67;21.70;100389.72;5065428;28;20435;-78
2022/08/23 09:00:50;;;;;;;1.63;1.53;;;;;;;36.30;20.86;100397.47;5065259;28;20486;-77
2022/08/23 09:03:19;;;;;;;4.10;2.20;;;;;;;36.41;20.98;100392.50;5065082;28;20453;-77
2022/08/23 09:05:53;;;;;;;2.50;1.70;;;;;;;34.77;22.82;100381.41;5064816;28;20541;-77
2022/08/23 09:08:32;;;;;;;2.80;2.20;;;;;;;35.54;22.02;100383.00;5065303;28;20482;-78
2022/08/23 09:11:02;;;;;;;5.00;2.40;;;;;;;35.75;22.35;100387.09;5064769;28;20478;-77
2022/08/23 09:13:40;;;;;;;3.63;2.10;;;;;;;35.37;22.84;100376.06;5065246;28;20811;-78
2022/08/23 09:16:21;;;;;;;4.90;2.27;;;;;;;34.35;23.37;100381.09;5063925;28;20558;-77
2022/08/23 09:18:48;;;;;;;4.27;2.50;;;;;;;35.20;22.43;100381.31;5064141;28;20470;-76
2022/08/23 09:21:17;;;;;;;2.67;2.13;;;;;;;35.14;22.55;100377.81;5064545;28;20536;-77
2022/08/23 09:23:45;;;;;;;3.37;2.40;;;;;;;35.45;21.31;100380.06;5065258;28;20449;-77
2022/08/23 09:26:20;;;;;;;2.20;1.83;;;;;;;36.06;20.67;100386.50;5064036;28;20472;-77
2022/08/23 09:28:49;;;;;;;5.60;2.40;;;;;;;34.72;22.78;100382.31;5064920;28;20442;-77
2022/08/23 09:31:36;;;;;;;2.93;2.20;;;;;;;35.61;22.10;100378.69;5064669;28;20475;-78
2022/08/23 09:34:03;;;;;;;4.67;2.10;;;;;;;36.69;20.93;100382.16;5064669;28;20454;-77
2022/08/23 09:36:34;;;;;;;4.27;2.40;;;;;;;36.75;21.37;100391.22;5046548;28;20483;-77
2022/08/23 09:39:03;;;;;;;2.40;1.80;;;;;;;35.67;21.92;100384.97;5044645;28;20747;-77
2022/08/23 09:41:35;;;;;;;5.47;3.03;;;;;;;36.10;21.25;100389.50;5044461;28;20480;-77
2022/08/23 09:44:03;;;;;;;3.97;2.10;;;;;;;34.77;22.65;100385.00;5044613;28;21078;-77
2022/08/23 09:46:34;;;;;;;2.77;1.87;;;;;;;34.68;22.79;100381.22;5043978;28;20926;-77
2022/08/23 09:49:22;;;;;;;5.47;2.23;;;;;;;36.08;21.89;100378.66;5055884;28;20475;-77
2022/08/23 09:51:50;;;;;;;3.67;2.20;;;;;;;35.08;22.10;100371.47;5063957;28;20471;-77
2022/08/23 09:54:19;;;;;;;6.20;2.20;;;;;;;35.51;22.05;100370.53;5063898;28;20492;-76
2022/08/23 09:56:51;;;;;;;6.20;2.10;;;;;;;34.91;23.26;100367.59;5062644;28;20486;-78
2022/08/23 09:59:34;;;;;;;3.60;2.50;;;;;;;36.94;21.51;100374.34;5064609;28;20448;-78
2022/08/23 10:02:01;;;;;;;3.40;2.40;;;;;;;35.18;21.69;100373.28;5063833;28;20512;-77
2022/08/23 10:04:38;;;;;;;4.00;2.70;;;;;;;34.55;23.28;100363.38;5062347;28;20459;-77
2022/08/23 10:07:22;;;;;;;4.07;2.00;;;;;;;35.34;23.08;100364.72;5058969;28;20510;-77
2022/08/23 10:09:48;;;;;;;3.40;2.43;;;;;;;36.08;21.89;100369.50;5044159;28;20856;-77
2022/08/23 10:12:15;;;;;;;3.73;2.20;;;;;;;34.89;22.78;100371.53;5043431;28;20476;-78
2022/08/23 10:14:42;;;;;;;4.40;2.20;;;;;;;35.13;22.67;100369.75;5043885;28;20440;-78
2022/08/23 10:17:27;;;;;;;3.37;1.97;;;;;;;35.57;21.74;100371.25;5061326;28;21047;-76
2022/08/23 10:20:00;;;;;;;5.03;2.40;;;;;;;35.85;21.81;100377.75;5064061;28;21045;-76
2022/08/23 10:22:37;;;;;;;3.00;2.30;;;;;;;35.16;23.11;100371.94;5057581;28;20864;-77
2022/08/23 10:25:11;;;;;;;4.20;2.33;;;;;;;35.45;21.95;100371.72;5063581;28;20504;-78
2022/08/23 10:30:38;;;;;;;5.20;2.80;;;;;;;35.10;23.03;100353.69;5063469;28;20516;-77
2022/08/23 10:33:18;;;;;;;6.10;2.30;;;;;;;34.89;23.13;100360.41;5063564;28;20463;-77
2022/08/23 10:35:48;;;;;;;2.93;2.10;;;;;;;35.94;22.09;100366.72;5063436;28;20483;-77
2022/08/23 10:38:45;;;;;;;3.30;2.17;;;;;;;35.56;21.89;100361.28;5051921;28;20583;-78
2022/08/23 10:41:24;;;;;;;5.10;2.30;;;;;;;35.05;22.47;100361.00;5019403;28;20475;-78
2022/08/23 10:43:55;;;;;;;3.10;2.50;;;;;;;35.82;21.81;100358.88;5043863;28;20412;-77
2022/08/23 10:46:22;;;;;;;3.50;2.00;;;;;;;36.07;21.53;100365.06;5042986;28;20479;-77
2022/08/23 10:48:54;;;;;;;3.10;1.90;;;;;;;35.72;21.84;100367.41;5043166;28;20460;-77
2022/08/23 10:51:24;;;;;;;3.50;2.07;;;;;;;35.51;22.31;100367.75;5042523;28;20549;-76
2022/08/23 10:53:59;;;;;;;2.67;2.37;;;;;;;35.64;22.60;100355.00;5045532;28;20449;-78
2022/08/23 10:56:27;;;;;;;4.37;2.33;;;;;;;35.71;22.28;100361.03;5062291;28;20487;-77
2022/08/23 10:58:56;;;;;;;4.63;2.30;;;;;;;35.02;22.51;100358.00;5063590;28;20492;-77
2022/08/23 11:01:25;;;;;;;2.90;2.40;;;;;;;35.30;22.77;100358.13;5062411;28;20477;-77
2022/08/23 11:04:00;;;;;;;7.03;2.50;;;;;;;35.34;22.74;100348.03;5062920;28;20455;-77
2022/08/23 11:06:48;;;;;;;3.73;2.30;;;;;;;35.68;22.18;100352.44;5062304;28;20484;-77
2022/08/23 11:09:48;;;;;;;2.67;2.23;;;;;;;37.24;20.39;100358.03;5042842;28;20501;-78
2022/08/23 11:12:23;;;;;;;4.17;2.23;;;;;;;36.45;21.34;100359.28;5037005;28;20492;-77
2022/08/23 11:15:12;;;;;;;2.90;2.43;;;;;;;36.64;21.63;100348.81;5043536;28;20509;-76
2022/08/23 11:17:54;;;;;;;6.10;2.60;;;;;;;35.99;22.35;100353.53;5042799;28;20445;-77
2022/08/23 11:20:57;;;;;;;6.50;2.27;;;;;;;36.58;21.70;100347.31;5042141;28;20466;-77
2022/08/23 11:23:45;;;;;;;2.93;2.13;;;;;;;37.02;21.23;100350.47;5043094;28;20433;-78
2022/08/23 11:26:48;;;;;;;4.60;1.90;;;;;;;35.71;22.75;100349.03;5042250;28;20470;-77
2022/08/23 11:29:33;;;;;;;2.27;2.07;;;;;;;35.56;22.15;100337.06;5030996;28;20918;-77
2022/08/23 11:32:05;;;;;;;3.20;2.23;;;;;;;34.60;22.38;100352.19;5042395;28;20479;-76
2022/08/23 11:34:36;;;;;;;5.23;2.67;;;;;;;34.64;22.96;100349.66;5042393;28;20519;-76
2022/08/23 11:37:27;;;;;;;4.10;2.27;;;;;;;34.69;22.48;100342.06;5042574;28;20523;-76
2022/08/23 11:40:11;;;;;;;2.97;2.20;;;;;;;35.63;21.97;100345.81;5042466;28;20547;-76
2022/08/23 11:42:53;;;;;;;3.00;2.40;;;;;;;34.89;23.18;100346.53;5042460;28;20492;-76
2022/08/23 11:45:29;;;;;;;4.80;2.63;;;;;;;35.47;22.43;100329.72;5058550;28;20442;-76
2022/08/23 11:48:08;;;;;;;3.70;2.57;;;;;;;34.61;23.02;100331.63;5042318;28;20527;-76